Time;durP1;ratioP1;P1;durP2;ratioP2;P2;SDS_P1;SDS_P2;PMS_P1;PMS_P2;Temp;Humidity;BMP_temperature;BMP_pressure;BME280_temperature;BME280_humidity;BME280_pressure;Samples;Min_cycle;Max_cycle;Signal;HPM_P1;HPM_P2
2022/08/17 00:00:51;;;;;;;49.15;36.38;;;19.60;99.90;;;;;;5068048;28;20047;-71
2022/08/17 00:03:18;;;;;;;52.35;36.63;;;19.60;99.90;;;;;;5051126;28;20051;-71
2022/08/17 00:05:54;;;;;;;49.50;37.20;;;19.50;99.90;;;;;;5052604;28;20063;-71
2022/08/17 00:08:23;;;;;;;47.95;34.97;;;19.60;99.90;;;;;;5066960;28;20036;-71
2022/08/17 00:10:50;;;;;;;51.22;36.35;;;19.50;99.90;;;;;;5067193;28;20036;-71
2022/08/17 00:13:24;;;;;;;50.65;36.78;;;19.50;99.90;;;;;;5050542;28;20128;-71
2022/08/17 00:15:51;;;;;;;51.38;37.30;;;19.40;99.90;;;;;;5069591;28;20174;-71
2022/08/17 00:18:17;;;;;;;49.75;36.40;;;19.40;99.90;;;;;;5067299;28;20499;-71
2022/08/17 00:20:43;;;;;;;53.40;36.50;;;19.40;99.90;;;;;;5068500;28;20107;-71
2022/08/17 00:23:12;;;;;;;54.40;36.92;;;19.40;99.90;;;;;;5034905;28;20110;-71
2022/08/17 00:25:41;;;;;;;49.67;36.40;;;19.40;99.90;;;;;;5083040;28;20032;-71
2022/08/17 00:28:06;;;;;;;48.15;34.78;;;19.40;99.90;;;;;;5066571;28;20119;-71
2022/08/17 00:30:34;;;;;;;50.92;36.00;;;19.40;99.90;;;;;;5064932;28;20161;-72
2022/08/17 00:33:06;;;;;;;51.50;35.85;;;19.30;99.90;;;;;;5067667;28;20051;-72
2022/08/17 00:35:32;;;;;;;49.08;35.85;;;19.30;99.90;;;;;;5067515;28;20043;-71
2022/08/17 00:37:58;;;;;;;49.75;34.90;;;19.30;99.90;;;;;;5066162;28;20040;-71
2022/08/17 00:40:24;;;;;;;52.33;37.85;;;19.20;99.90;;;;;;5068549;28;20055;-72
2022/08/17 00:42:49;;;;;;;53.58;37.28;;;19.20;99.90;;;;;;5067780;28;20043;-72
2022/08/17 00:45:17;;;;;;;53.00;36.55;;;19.20;99.90;;;;;;5035216;28;20078;-72
2022/08/17 00:47:42;;;;;;;49.72;36.80;;;19.20;99.90;;;;;;5066409;28;20508;-73
2022/08/17 00:50:12;;;;;;;50.75;34.72;;;19.20;99.90;;;;;;5068067;28;20036;-73
2022/08/17 00:52:50;;;;;;;49.72;35.30;;;19.20;99.90;;;;;;5047526;28;20489;-73
2022/08/17 00:55:17;;;;;;;47.72;35.83;;;19.20;99.90;;;;;;5066884;28;20415;-73
2022/08/17 00:57:47;;;;;;;55.53;37.30;;;19.10;99.90;;;;;;5051696;28;20048;-73
2022/08/17 01:00:27;;;;;;;49.72;35.85;;;19.30;99.90;;;;;;5050257;28;20047;-73
2022/08/17 01:03:05;;;;;;;54.00;36.42;;;19.10;99.90;;;;;;5062857;28;20040;-74
2022/08/17 01:05:33;;;;;;;47.35;34.40;;;19.00;99.90;;;;;;5051626;28;20103;-73
2022/08/17 01:08:02;;;;;;;48.50;35.22;;;19.00;99.90;;;;;;5048384;28;20489;-73
2022/08/17 01:10:47;;;;;;;44.30;34.55;;;18.90;99.90;;;;;;5050773;28;20051;-73
2022/08/17 01:13:15;;;;;;;47.15;36.92;;;18.90;99.90;;;;;;5065973;28;20047;-73
2022/08/17 01:15:52;;;;;;;50.78;35.17;;;18.90;99.90;;;;;;5049810;28;20546;-73
2022/08/17 01:18:18;;;;;;;46.40;36.42;;;18.80;99.90;;;;;;5049467;28;20093;-73
2022/08/17 01:20:48;;;;;;;53.05;36.78;;;18.80;99.90;;;;;;5065509;28;20036;-73
2022/08/17 01:23:15;;;;;;;44.28;34.45;;;18.80;99.90;;;;;;5067175;28;20044;-73
2022/08/17 01:25:41;;;;;;;45.17;34.55;;;18.80;99.90;;;;;;5050447;28;20402;-73
2022/08/17 01:28:06;;;;;;;43.22;34.08;;;18.80;99.90;;;;;;5067306;28;20150;-73
2022/08/17 01:30:32;;;;;;;44.55;33.55;;;18.70;99.90;;;;;;5065927;28;20036;-73
2022/08/17 01:32:58;;;;;;;43.17;33.08;;;18.70;99.90;;;;;;5066673;28;20044;-73
2022/08/17 01:35:24;;;;;;;43.13;34.15;;;18.60;99.90;;;;;;5073388;28;20047;-73
2022/08/17 01:37:50;;;;;;;41.80;31.73;;;18.60;99.90;;;;;;5055735;28;20101;-73
2022/08/17 01:40:30;;;;;;;45.75;33.53;;;18.60;99.90;;;;;;5055244;28;20132;-73
2022/08/17 01:43:02;;;;;;;43.92;32.53;;;18.60;99.90;;;;;;5072325;28;20035;-73
2022/08/17 01:45:32;;;;;;;44.95;34.70;;;18.50;99.90;;;;;;5086285;28;20244;-73
2022/08/17 01:47:59;;;;;;;44.78;34.03;;;18.50;99.90;;;;;;5069098;28;20047;-73
2022/08/17 01:50:28;;;;;;;45.63;33.15;;;18.40;99.90;;;;;;5069704;28;20036;-73
2022/08/17 01:53:02;;;;;;;46.90;33.22;;;18.60;99.90;;;;;;5055051;28;20036;-73
2022/08/17 01:55:39;;;;;;;45.55;32.28;;;18.40;99.90;;;;;;5054486;28;20067;-73
2022/08/17 01:58:08;;;;;;;40.30;30.80;;;18.40;99.90;;;;;;5077920;28;20074;-73
2022/08/17 02:00:39;;;;;;;40.03;31.60;;;18.40;99.90;;;;;;5055251;28;20438;-73
2022/08/17 02:03:06;;;;;;;36.17;30.52;;;18.30;99.90;;;;;;5052414;28;20054;-73
2022/08/17 02:05:34;;;;;;;38.50;30.40;;;18.30;99.90;;;;;;5072841;28;20036;-73
2022/08/17 02:08:00;;;;;;;42.28;30.55;;;18.30;99.90;;;;;;5071497;28;20092;-73
2022/08/17 02:10:28;;;;;;;39.35;30.30;;;18.30;99.90;;;;;;5071458;28;20062;-73
2022/08/17 02:12:54;;;;;;;39.20;30.48;;;18.30;99.90;;;;;;5069630;28;20047;-73
2022/08/17 02:15:21;;;;;;;36.95;29.42;;;18.30;99.90;;;;;;5069627;28;20083;-73
2022/08/17 02:17:47;;;;;;;36.70;30.90;;;18.30;99.90;;;;;;5038923;28;20130;-73
2022/08/17 02:20:13;;;;;;;35.63;28.95;;;18.20;99.90;;;;;;5070572;28;20036;-73
2022/08/17 02:22:41;;;;;;;39.80;31.90;;;18.20;99.90;;;;;;5054205;28;20036;-73
2022/08/17 02:25:09;;;;;;;37.88;30.55;;;18.20;99.90;;;;;;5070468;28;20036;-73
2022/08/17 02:27:36;;;;;;;38.00;29.77;;;18.20;99.90;;;;;;5070930;28;20044;-73
2022/08/17 02:30:05;;;;;;;35.17;28.92;;;18.30;99.90;;;;;;5070220;28;20443;-73
2022/08/17 02:32:31;;;;;;;37.97;29.20;;;18.20;99.90;;;;;;5071997;28;20046;-73
2022/08/17 02:34:57;;;;;;;35.85;29.88;;;18.20;99.90;;;;;;5053148;28;20048;-73
2022/08/17 02:37:24;;;;;;;38.80;29.77;;;18.20;99.90;;;;;;5070211;28;20485;-73
2022/08/17 02:39:50;;;;;;;33.78;28.75;;;18.20;99.90;;;;;;5075103;28;20044;-73
2022/08/17 02:42:15;;;;;;;42.13;31.08;;;18.10;99.90;;;;;;5053724;28;20044;-73
2022/08/17 02:44:41;;;;;;;38.72;31.05;;;18.10;99.90;;;;;;5037343;28;20085;-74
2022/08/17 02:47:09;;;;;;;42.58;32.67;;;18.10;99.90;;;;;;5071000;28;20093;-73
2022/08/17 02:49:35;;;;;;;41.15;31.92;;;18.00;99.90;;;;;;5071502;28;20032;-73
2022/08/17 02:52:03;;;;;;;39.67;30.23;;;18.00;99.90;;;;;;5069155;28;20515;-73
2022/08/17 02:54:29;;;;;;;39.95;30.48;;;18.00;99.90;;;;;;5069408;28;21197;-73
2022/08/17 02:56:55;;;;;;;44.22;31.45;;;18.00;99.90;;;;;;5069861;28;20036;-73
2022/08/17 02:59:23;;;;;;;40.97;32.25;;;18.00;99.90;;;;;;5049753;28;20036;-73
2022/08/17 03:01:49;;;;;;;37.53;31.05;;;18.00;99.90;;;;;;5070001;28;20067;-73
2022/08/17 03:04:14;;;;;;;40.30;30.40;;;18.00;99.90;;;;;;5036703;28;20870;-73
2022/08/17 03:06:40;;;;;;;50.70;31.55;;;18.00;99.90;;;;;;5053935;28;20047;-73
2022/08/17 03:09:06;;;;;;;42.60;32.10;;;18.00;99.90;;;;;;5052351;28;20046;-73
2022/08/17 03:11:32;;;;;;;48.13;35.05;;;18.00;99.90;;;;;;5068690;28;20043;-73
2022/08/17 03:13:58;;;;;;;47.00;33.67;;;18.00;99.90;;;;;;5050150;28;20056;-73
2022/08/17 03:16:23;;;;;;;43.80;32.95;;;18.00;99.90;;;;;;5071207;28;20044;-73
2022/08/17 03:18:49;;;;;;;47.60;34.28;;;18.00;99.90;;;;;;5068465;28;20036;-73
2022/08/17 03:21:15;;;;;;;47.72;34.50;;;18.00;99.90;;;;;;5052226;28;20072;-73
2022/08/17 03:23:41;;;;;;;42.15;32.55;;;18.00;99.90;;;;;;5069093;28;20036;-73
2022/08/17 03:26:10;;;;;;;47.78;35.40;;;18.00;99.90;;;;;;5049032;28;20036;-73
2022/08/17 03:28:37;;;;;;;41.92;33.00;;;18.10;99.90;;;;;;5068482;28;20149;-73
2022/08/17 03:31:04;;;;;;;45.28;34.22;;;18.10;99.90;;;;;;5044855;28;20068;-73
2022/08/17 03:33:31;;;;;;;45.13;34.88;;;18.10;99.90;;;;;;5068028;28;20047;-73
2022/08/17 03:35:57;;;;;;;49.33;36.03;;;18.10;99.90;;;;;;5069382;28;20040;-73
2022/08/17 03:38:23;;;;;;;44.65;33.75;;;18.00;99.90;;;;;;5066176;28;20044;-73
2022/08/17 03:40:50;;;;;;;44.47;33.53;;;18.00;99.90;;;;;;5068838;28;20036;-73
2022/08/17 03:43:17;;;;;;;48.47;35.10;;;18.00;99.90;;;;;;5070906;28;20513;-73
2022/08/17 03:57:04;;;;;;;49.63;34.42;;;17.90;99.90;;;;;;5070170;28;20040;-73
2022/08/17 03:59:31;;;;;;;49.00;35.35;;;17.90;99.90;;;;;;5065769;28;20127;-73
2022/08/17 04:02:02;;;;;;;53.35;37.55;;;17.90;99.90;;;;;;5085411;28;20036;-72
2022/08/17 04:04:28;;;;;;;49.65;37.22;;;18.00;99.90;;;;;;5066240;28;20040;-72
2022/08/17 04:06:54;;;;;;;46.80;36.33;;;18.00;99.90;;;;;;5033298;28;20036;-72
2022/08/17 04:09:20;;;;;;;58.22;39.28;;;18.00;99.90;;;;;;5068042;28;20032;-72
2022/08/17 04:11:46;;;;;;;50.33;37.83;;;17.90;99.90;;;;;;5051982;28;20559;-72
2022/08/17 04:14:12;;;;;;;54.13;38.10;;;17.90;99.90;;;;;;5067325;28;20836;-72
2022/08/17 04:16:38;;;;;;;53.67;38.72;;;17.90;99.90;;;;;;5052952;28;20139;-72
2022/08/17 04:19:04;;;;;;;51.63;38.28;;;17.90;99.90;;;;;;5049202;28;20348;-72
2022/08/17 04:21:30;;;;;;;50.63;37.88;;;18.00;99.90;;;;;;5068811;28;20096;-72
2022/08/17 04:23:57;;;;;;;56.55;37.28;;;17.90;99.90;;;;;;5049482;28;20032;-72
2022/08/17 04:26:23;;;;;;;51.95;37.00;;;17.90;99.90;;;;;;5068989;28;20082;-72
2022/08/17 04:28:48;;;;;;;51.72;37.38;;;17.90;99.90;;;;;;5067790;28;20055;-72
2022/08/17 04:31:15;;;;;;;51.25;38.03;;;17.90;99.90;;;;;;5047020;28;20075;-72
2022/08/17 04:33:45;;;;;;;52.03;36.55;;;17.90;99.90;;;;;;5048172;28;20065;-72
2022/08/17 04:36:14;;;;;;;53.03;37.40;;;17.90;99.90;;;;;;5068716;28;20363;-72
2022/08/17 04:38:43;;;;;;;50.03;35.63;;;17.90;99.90;;;;;;5064738;28;20392;-72
2022/08/17 04:43:57;;;;;;;45.42;35.25;;;17.90;99.90;;;;;;5067577;28;20043;-72
2022/08/17 04:46:26;;;;;;;49.63;34.88;;;17.90;99.90;;;;;;5069284;28;20038;-72
2022/08/17 04:48:55;;;;;;;50.40;36.88;;;17.90;99.90;;;;;;5051055;28;20075;-72
2022/08/17 04:51:29;;;;;;;47.88;36.78;;;17.90;99.90;;;;;;5052099;28;20463;-72
2022/08/17 04:53:58;;;;;;;45.63;35.42;;;17.90;99.90;;;;;;5066907;28;20040;-72
2022/08/17 04:56:26;;;;;;;47.75;34.22;;;17.90;99.90;;;;;;5065194;28;20063;-72
2022/08/17 04:58:54;;;;;;;47.95;36.88;;;17.90;99.90;;;;;;5056567;28;20052;-71
2022/08/17 05:01:22;;;;;;;46.33;34.88;;;17.90;99.90;;;;;;5048739;28;20078;-72
2022/08/17 05:03:47;;;;;;;51.30;36.65;;;17.90;99.90;;;;;;5035078;28;20501;-72
2022/08/17 05:06:13;;;;;;;51.42;37.28;;;17.90;99.90;;;;;;5051477;28;20105;-72
2022/08/17 05:08:39;;;;;;;50.33;36.60;;;17.90;99.90;;;;;;5049649;28;20468;-72
2022/08/17 05:11:05;;;;;;;53.97;37.20;;;18.00;99.90;;;;;;5067100;28;20085;-72
2022/08/17 05:13:31;;;;;;;53.88;38.22;;;18.00;99.90;;;;;;5067913;28;20108;-72
2022/08/17 05:15:59;;;;;;;55.13;37.60;;;18.00;99.90;;;;;;5065853;28;20056;-72
2022/08/17 05:18:26;;;;;;;56.25;39.40;;;18.10;99.90;;;;;;5082629;28;20452;-72
2022/08/17 05:20:52;;;;;;;56.22;39.40;;;18.00;99.90;;;;;;5067105;28;20066;-72
2022/08/17 05:23:19;;;;;;;56.00;37.70;;;18.10;99.90;;;;;;5067341;28;20097;-72
2022/08/17 05:25:47;;;;;;;51.35;36.85;;;18.10;99.90;;;;;;5065333;28;20536;-72
2022/08/17 05:28:15;;;;;;;51.05;38.30;;;18.10;99.90;;;;;;5050585;28;20039;-72
2022/08/17 05:30:42;;;;;;;50.53;37.70;;;18.10;99.90;;;;;;5065751;28;20028;-72
2022/08/17 05:33:15;;;;;;;50.22;36.83;;;18.20;99.90;;;;;;5066712;28;20409;-72
2022/08/17 05:35:45;;;;;;;45.22;35.00;;;18.20;99.90;;;;;;5067452;28;20036;-72
2022/08/17 05:38:12;;;;;;;50.42;37.08;;;18.20;99.90;;;;;;5045457;28;20039;-72
2022/08/17 05:40:38;;;;;;;51.38;36.90;;;18.20;99.90;;;;;;5030428;28;20080;-72
2022/08/17 05:43:04;;;;;;;50.38;35.88;;;18.20;99.90;;;;;;5050969;28;20240;-72
2022/08/17 05:45:31;;;;;;;52.00;37.78;;;18.20;99.90;;;;;;5067585;28;20082;-72
2022/08/17 05:47:58;;;;;;;51.92;37.58;;;18.20;99.90;;;;;;5065744;28;20064;-72
2022/08/17 05:50:32;;;;;;;47.35;35.35;;;18.20;99.90;;;;;;5066259;28;20499;-72
2022/08/17 05:53:22;;;;;;;56.75;38.00;;;18.20;99.90;;;;;;5049168;28;20040;-72
2022/08/17 05:56:05;;;;;;;52.88;37.75;;;18.20;99.90;;;;;;5066640;28;20501;-72
2022/08/17 05:59:07;;;;;;;55.63;39.03;;;18.30;99.90;;;;;;5061407;28;20032;-72
2022/08/17 06:02:04;;;;;;;59.55;39.35;;;18.30;99.90;;;;;;5076692;28;20036;-70
2022/08/17 06:04:56;;;;;;;55.65;38.63;;;18.30;99.90;;;;;;5065715;28;20036;-70
2022/08/17 06:07:33;;;;;;;59.47;39.00;;;18.40;99.90;;;;;;5066494;28;20032;-70
2022/08/17 06:10:19;;;;;;;53.00;38.22;;;18.40;99.90;;;;;;5065084;28;20115;-70
2022/08/17 06:13:00;;;;;;;52.10;36.92;;;18.40;99.90;;;;;;5066723;28;20133;-70
2022/08/17 06:15:32;;;;;;;51.88;37.80;;;18.40;99.90;;;;;;5060404;28;20048;-70
2022/08/17 06:18:01;;;;;;;62.30;40.37;;;18.50;99.90;;;;;;5068016;28;20506;-70
2022/08/17 06:20:57;;;;;;;58.45;39.25;;;18.50;99.90;;;;;;5068864;28;20131;-70
2022/08/17 06:23:36;;;;;;;59.35;40.05;;;18.60;99.90;;;;;;5064408;28;20083;-70
2022/08/17 06:26:15;;;;;;;61.35;40.78;;;18.60;99.90;;;;;;5083986;28;20044;-70
2022/08/17 06:28:51;;;;;;;55.67;39.80;;;18.70;99.90;;;;;;5049354;28;20032;-70
2022/08/17 06:31:28;;;;;;;58.88;39.97;;;18.70;99.90;;;;;;5067979;28;20032;-70
2022/08/17 06:34:01;;;;;;;58.92;40.90;;;18.70;99.90;;;;;;5067147;28;20035;-70
2022/08/17 06:36:36;;;;;;;58.35;41.38;;;18.70;99.90;;;;;;5068217;28;20043;-70
2022/08/17 06:39:31;;;;;;;59.40;42.33;;;18.80;99.90;;;;;;5069938;28;20126;-70
2022/08/17 06:42:13;;;;;;;56.22;39.55;;;18.90;99.90;;;;;;5069372;28;20593;-70
2022/08/17 06:44:49;;;;;;;63.03;42.30;;;18.90;99.90;;;;;;5069805;28;20051;-73
2022/08/17 06:47:28;;;;;;;55.28;41.00;;;18.90;99.90;;;;;;5075140;28;20044;-73
2022/08/17 06:50:03;;;;;;;64.07;43.88;;;19.00;99.90;;;;;;5058716;28;20044;-73
2022/08/17 06:52:33;;;;;;;62.25;42.50;;;19.00;99.90;;;;;;5075183;28;20067;-73
2022/08/17 06:55:17;;;;;;;60.15;42.38;;;19.00;99.90;;;;;;5057941;28;20040;-74
2022/08/17 06:57:49;;;;;;;60.72;43.10;;;19.10;99.90;;;;;;5074878;28;20044;-73
2022/08/17 07:00:18;;;;;;;57.95;38.28;;;19.10;99.90;;;;;;5075080;28;20047;-73
2022/08/17 07:02:44;;;;;;;53.95;40.55;;;19.10;99.90;;;;;;5074775;28;20123;-73
2022/08/17 07:05:11;;;;;;;53.88;39.00;;;19.20;99.90;;;;;;5058085;28;20162;-73
2022/08/17 07:08:00;;;;;;;50.65;36.75;;;19.20;99.90;;;;;;5074616;28;20259;-73
2022/08/17 07:10:30;;;;;;;50.95;37.78;;;19.30;99.90;;;;;;5058343;28;20040;-73
2022/08/17 07:13:07;;;;;;;50.78;37.20;;;19.40;99.90;;;;;;5076107;28;20047;-73
2022/08/17 07:15:41;;;;;;;47.25;36.38;;;19.50;99.90;;;;;;5075806;28;20039;-73
2022/08/17 07:18:08;;;;;;;51.38;36.50;;;19.70;99.90;;;;;;5074497;28;20432;-73
2022/08/17 07:20:36;;;;;;;46.45;36.28;;;19.70;99.90;;;;;;5074568;28;20048;-73
2022/08/17 07:23:25;;;;;;;46.58;35.97;;;19.90;99.90;;;;;;5057918;28;20115;-73
2022/08/17 07:25:51;;;;;;;48.05;36.28;;;19.90;99.90;;;;;;5074670;28;20585;-73
2022/08/17 07:28:25;;;;;;;47.70;35.75;;;20.10;99.90;;;;;;5057875;28;20032;-73
2022/08/17 07:30:53;;;;;;;44.40;35.38;;;20.20;99.90;;;;;;5074495;28;20217;-73
2022/08/17 07:33:25;;;;;;;46.72;35.15;;;20.40;99.90;;;;;;5074513;28;20048;-73
2022/08/17 07:35:51;;;;;;;45.92;35.17;;;20.60;99.90;;;;;;5074102;28;20508;-73
2022/08/17 07:38:32;;;;;;;42.00;32.50;;;20.80;99.90;;;;;;5071777;28;20489;-73
2022/08/17 07:41:03;;;;;;;38.67;30.85;;;20.90;99.90;;;;;;5057440;28;20485;-73
2022/08/17 07:43:38;;;;;;;40.95;29.80;;;21.00;99.90;;;;;;5057515;28;20036;-73
2022/08/17 07:49:08;;;;;;;38.83;30.77;;;21.00;99.90;;;;;;5073787;28;20101;-73
2022/08/17 07:51:52;;;;;;;38.20;29.52;;;21.10;99.90;;;;;;5074255;28;20245;-73
2022/08/17 07:54:21;;;;;;;38.15;29.42;;;21.20;99.90;;;;;;5057065;28;20079;-73
2022/08/17 07:56:53;;;;;;;36.65;30.25;;;21.20;99.90;;;;;;5057114;28;20455;-73
2022/08/17 07:59:25;;;;;;;39.15;29.85;;;21.30;99.90;;;;;;5057217;28;20039;-73
2022/08/17 08:01:53;;;;;;;43.33;30.42;;;21.40;99.90;;;;;;5083779;28;20081;-73
2022/08/17 08:04:26;;;;;;;36.13;29.63;;;21.50;99.90;;;;;;5077669;28;20447;-73
2022/08/17 08:06:55;;;;;;;32.45;27.75;;;21.70;99.90;;;;;;5073987;28;20040;-73
2022/08/17 08:09:44;;;;;;;30.73;25.65;;;21.90;99.90;;;;;;5073517;28;20065;-73
2022/08/17 08:12:28;;;;;;;28.65;25.33;;;22.10;99.90;;;;;;5073392;28;20117;-73
2022/08/17 08:15:14;;;;;;;31.70;26.63;;;22.40;99.90;;;;;;5070703;28;20436;-73
2022/08/17 08:17:54;;;;;;;30.58;26.00;;;22.60;99.90;;;;;;5057097;28;20393;-73
2022/08/17 08:20:49;;;;;;;31.20;26.30;;;22.90;99.90;;;;;;5073610;28;20043;-72
2022/08/17 08:23:36;;;;;;;28.35;24.05;;;23.10;99.90;;;;;;5050457;28;20135;-73
2022/08/17 08:26:26;;;;;;;27.90;24.00;;;23.30;99.90;;;;;;5073345;28;20032;-73
2022/08/17 08:28:59;;;;;;;27.90;24.83;;;23.40;99.90;;;;;;5056786;28;20040;-73
2022/08/17 08:31:24;;;;;;;28.40;24.15;;;23.40;99.90;;;;;;5072923;28;20090;-73
2022/08/17 08:33:58;;;;;;;28.38;24.88;;;23.40;99.90;;;;;;5073143;28;20060;-73
2022/08/17 08:36:36;;;;;;;31.58;26.85;;;23.40;99.90;;;;;;5073008;28;20070;-73
2022/08/17 08:39:23;;;;;;;30.17;24.98;;;23.30;99.90;;;;;;5056093;28;20481;-72
2022/08/17 08:42:01;;;;;;;26.65;23.70;;;23.20;99.90;;;;;;5072961;28;20054;-74
2022/08/17 08:44:33;;;;;;;28.38;24.70;;;23.20;99.90;;;;;;5056154;28;20032;-73
2022/08/17 08:47:40;;;;;;;26.98;23.27;;;23.20;99.90;;;;;;5056425;28;20460;-73
2022/08/17 08:50:27;;;;;;;28.85;24.15;;;23.20;99.90;;;;;;5056290;28;20046;-73
2022/08/17 08:53:35;;;;;;;27.30;23.02;;;23.10;99.90;;;;;;5073005;28;20120;-73
2022/08/17 08:56:31;;;;;;;26.20;22.77;;;23.00;99.90;;;;;;5043399;28;20055;-73
2022/08/17 08:59:21;;;;;;;26.70;22.20;;;22.90;99.90;;;;;;5055310;28;20036;-73
2022/08/17 09:02:05;;;;;;;26.23;22.35;;;22.80;99.90;;;;;;5073039;28;20497;-74
2022/08/17 09:05:10;;;;;;;28.08;23.40;;;22.70;99.90;;;;;;5072585;28;20397;-74
2022/08/17 09:07:58;;;;;;;27.30;21.98;;;22.80;99.90;;;;;;5036859;28;20044;-73
2022/08/17 09:10:56;;;;;;;28.65;23.00;;;22.70;99.90;;;;;;5072122;28;20032;-73
2022/08/17 09:13:39;;;;;;;24.90;21.60;;;22.80;99.90;;;;;;5055571;28;20052;-73
2022/08/17 09:16:41;;;;;;;23.33;20.83;;;22.80;99.90;;;;;;5067898;28;20036;-74
2022/08/17 09:19:29;;;;;;;22.42;19.90;;;22.80;99.90;;;;;;5065814;28;20059;-73
2022/08/17 09:22:10;;;;;;;22.23;19.00;;;22.80;99.90;;;;;;5072258;28;20036;-74
2022/08/17 09:24:55;;;;;;;22.73;20.05;;;22.70;99.90;;;;;;5055538;28;20074;-73
2022/08/17 09:27:29;;;;;;;22.52;18.45;;;22.70;99.90;;;;;;5072705;28;20119;-74
2022/08/17 09:30:01;;;;;;;21.67;19.27;;;22.60;99.90;;;;;;5072272;28;20043;-74
2022/08/17 09:32:42;;;;;;;22.23;18.55;;;22.60;99.90;;;;;;5072532;28;20553;-74
2022/08/17 09:35:19;;;;;;;23.37;18.83;;;22.50;99.90;;;;;;5072059;28;20048;-74
2022/08/17 09:37:57;;;;;;;23.73;19.65;;;22.60;99.90;;;;;;5055560;28;20286;-73
2022/08/17 09:40:29;;;;;;;18.85;16.73;;;22.60;99.90;;;;;;5055114;28;20101;-74
2022/08/17 09:43:28;;;;;;;18.80;16.00;;;22.60;99.90;;;;;;5055539;28;20047;-74
2022/08/17 09:46:02;;;;;;;19.23;15.88;;;22.70;99.90;;;;;;5033297;28;20039;-74
2022/08/17 09:48:40;;;;;;;18.50;16.45;;;22.80;99.90;;;;;;5072241;28;20055;-73
2022/08/17 09:51:14;;;;;;;18.48;16.13;;;23.00;99.90;;;;;;5072353;28;20388;-74
2022/08/17 09:53:40;;;;;;;18.38;16.35;;;23.10;99.90;;;;;;5055788;28;20040;-73
2022/08/17 09:56:06;;;;;;;19.08;16.40;;;23.30;99.90;;;;;;5072261;28;20063;-73
2022/08/17 09:58:43;;;;;;;17.17;15.35;;;23.40;99.90;;;;;;5071989;28;20090;-73
2022/08/17 10:01:30;;;;;;;16.33;14.55;;;23.60;99.90;;;;;;5071982;28;20509;-73
2022/08/17 10:04:07;;;;;;;18.98;15.93;;;23.70;99.90;;;;;;5072107;28;20128;-73
2022/08/17 10:06:46;;;;;;;17.67;15.88;;;24.00;99.90;;;;;;5041280;28;20410;-72
2022/08/17 10:09:28;;;;;;;17.90;16.00;;;24.10;99.90;;;;;;5071598;28;20032;-73
2022/08/17 10:12:19;;;;;;;18.05;15.32;;;24.20;99.90;;;;;;5075195;28;20046;-72
2022/08/17 10:14:56;;;;;;;18.80;14.55;;;24.30;99.90;;;;;;5059045;28;20052;-72
2022/08/17 10:17:22;;;;;;;15.70;14.10;;;24.40;99.90;;;;;;5075924;28;20044;-73
2022/08/17 10:19:59;;;;;;;17.45;14.65;;;24.40;99.90;;;;;;5058782;28;20066;-72
2022/08/17 10:28:17;;;;;;;19.08;15.90;;;24.50;99.90;;;;;;5093722;28;20094;-73
2022/08/17 10:30:50;;;;;;;18.15;15.50;;;24.40;99.90;;;;;;5075657;28;20485;-73
2022/08/17 10:33:23;;;;;;;18.50;16.00;;;24.40;99.90;;;;;;5075514;28;20051;-73
2022/08/17 10:36:00;;;;;;;19.40;17.20;;;24.40;99.90;;;;;;5075222;28;20043;-72
2022/08/17 10:39:04;;;;;;;21.60;17.73;;;24.30;99.90;;;;;;5058982;28;20048;-73
2022/08/17 10:41:42;;;;;;;20.80;16.85;;;24.30;99.90;;;;;;5043691;28;20080;-73
2022/08/17 10:44:38;;;;;;;20.60;18.42;;;24.30;99.90;;;;;;5075469;28;20464;-72
2022/08/17 10:47:14;;;;;;;22.67;18.85;;;24.30;99.90;;;;;;5058485;28;20044;-73
2022/08/17 10:49:52;;;;;;;21.70;18.27;;;24.30;99.90;;;;;;5058803;28;20036;-73
2022/08/17 10:52:18;;;;;;;22.92;17.85;;;24.30;99.90;;;;;;5058282;28;20046;-73
2022/08/17 10:54:50;;;;;;;23.13;18.52;;;24.30;99.90;;;;;;5075133;28;20266;-73
2022/08/17 10:57:28;;;;;;;22.80;18.60;;;24.30;99.90;;;;;;5058233;28;20047;-73
2022/08/17 10:59:58;;;;;;;27.50;20.75;;;24.50;99.90;;;;;;5058467;28;20507;-72
2022/08/17 11:02:40;;;;;;;24.73;20.27;;;24.60;99.90;;;;;;5058214;28;20067;-73
2022/08/17 11:05:31;;;;;;;27.05;20.75;;;24.80;99.90;;;;;;5058308;28;20047;-72
2022/08/17 11:08:04;;;;;;;27.15;22.40;;;25.00;99.90;;;;;;5074810;28;20039;-73
2022/08/17 11:11:05;;;;;;;27.13;21.98;;;25.30;99.90;;;;;;5074720;28;20119;-73
2022/08/17 11:13:41;;;;;;;29.45;23.08;;;25.40;99.90;;;;;;5005736;28;20135;-73
2022/08/17 11:16:46;;;;;;;28.52;22.35;;;25.60;99.90;;;;;;5074761;28;20048;-73
2022/08/17 11:19:33;;;;;;;33.22;24.52;;;25.80;99.90;;;;;;5074503;28;20561;-73
2022/08/17 11:22:14;;;;;;;28.85;24.20;;;25.90;99.90;;;;;;5073892;28;20040;-73
2022/08/17 11:24:46;;;;;;;31.90;24.23;;;26.00;99.90;;;;;;5074472;28;20504;-73
2022/08/17 11:27:24;;;;;;;30.58;25.02;;;26.00;99.90;;;;;;5058009;28;20047;-73
2022/08/17 11:30:04;;;;;;;32.60;25.60;;;25.80;99.90;;;;;;5074503;28;20040;-73
2022/08/17 11:32:30;;;;;;;31.83;24.40;;;25.70;99.90;;;;;;5057579;28;20044;-73
2022/08/17 11:35:17;;;;;;;34.28;25.55;;;25.40;99.90;;;;;;5074307;28;20146;-73
2022/08/17 11:38:17;;;;;;;34.92;26.30;;;25.30;99.90;;;;;;5074201;28;20089;-73
2022/08/17 11:40:58;;;;;;;34.65;26.85;;;25.10;99.90;;;;;;5073982;28;20072;-72
2022/08/17 11:43:46;;;;;;;36.67;27.73;;;25.00;99.90;;;;;;5073882;28;20051;-73
2022/08/17 11:52:52;;;;;;;39.70;30.20;;;24.60;99.90;;;;;;5073827;28;20089;-73
2022/08/17 11:55:26;;;;;;;37.90;30.60;;;24.60;99.90;;;;;;5038891;28;20045;-73
2022/08/17 11:58:00;;;;;;;42.05;32.15;;;24.60;99.90;;;;;;5074071;28;20075;-72
2022/08/17 12:00:44;;;;;;;40.63;31.02;;;24.50;99.90;;;;;;5057092;28;20040;-73
2022/08/17 12:03:33;;;;;;;64.32;32.88;;;24.60;99.90;;;;;;5073606;28;20070;-72
2022/08/17 12:06:10;;;;;;;43.00;31.40;;;24.40;99.90;;;;;;5073614;28;20043;-73
2022/08/17 12:08:42;;;;;;;41.78;30.23;;;24.40;99.90;;;;;;5056910;28;20125;-73
2022/08/17 12:11:29;;;;;;;40.28;30.92;;;24.40;99.90;;;;;;5073594;28;20044;-74
2022/08/17 12:13:57;;;;;;;47.15;32.42;;;24.30;99.90;;;;;;5073406;28;20135;-73
2022/08/17 12:16:23;;;;;;;44.45;33.08;;;24.30;99.90;;;;;;5056899;28;20107;-74
2022/08/17 12:18:58;;;;;;;45.58;33.90;;;24.30;99.90;;;;;;5073506;28;20031;-74
2022/08/17 12:22:07;;;;;;;42.80;33.35;;;24.30;99.90;;;;;;5056679;28;20040;-74
2022/08/17 12:24:38;;;;;;;45.00;32.20;;;24.30;99.90;;;;;;5060897;28;20085;-74
2022/08/17 12:27:08;;;;;;;43.92;32.20;;;24.30;99.90;;;;;;5056952;28;20488;-73
2022/08/17 12:29:35;;;;;;;42.42;32.88;;;24.40;99.90;;;;;;5073369;28;20036;-73
2022/08/17 12:32:04;;;;;;;42.40;33.05;;;24.30;99.90;;;;;;5073366;28;20061;-73
2022/08/17 12:34:42;;;;;;;42.50;33.80;;;24.30;99.90;;;;;;5039222;28;20135;-73
2022/08/17 12:37:34;;;;;;;49.72;37.05;;;24.30;99.90;;;;;;5073045;28;20074;-73
2022/08/17 12:40:22;;;;;;;50.88;37.38;;;24.30;99.90;;;;;;5051907;28;20056;-73
2022/08/17 12:42:57;;;;;;;47.63;36.58;;;24.30;99.90;;;;;;5073079;28;20123;-73
2022/08/17 12:45:32;;;;;;;49.63;36.85;;;24.30;99.90;;;;;;5056810;28;20051;-73
2022/08/17 12:48:07;;;;;;;53.88;39.03;;;24.30;99.90;;;;;;5056402;28;20040;-73
2022/08/17 12:50:37;;;;;;;53.75;39.47;;;24.30;99.90;;;;;;5072842;28;20431;-73
2022/08/17 12:53:09;;;;;;;52.80;38.67;;;24.30;99.90;;;;;;5073210;28;20083;-73
2022/08/17 12:55:37;;;;;;;59.40;42.90;;;24.30;99.90;;;;;;5072864;28;20040;-73
2022/08/17 12:58:03;;;;;;;56.80;40.53;;;24.30;99.90;;;;;;5056635;28;20075;-72
2022/08/17 13:00:42;;;;;;;56.22;40.05;;;24.30;99.90;;;;;;5056176;28;20493;-73
2022/08/17 13:03:18;;;;;;;57.65;39.47;;;24.20;99.90;;;;;;5055996;28;20052;-74
2022/08/17 13:05:59;;;;;;;54.35;40.67;;;24.30;99.90;;;;;;5056273;28;20063;-73
2022/08/17 13:08:34;;;;;;;54.03;40.03;;;24.20;99.90;;;;;;5056093;28;20101;-73
2022/08/17 13:11:17;;;;;;;57.05;41.85;;;24.10;99.90;;;;;;5068946;28;20318;-72
2022/08/17 13:13:54;;;;;;;56.92;41.13;;;24.10;99.90;;;;;;5064814;28;20564;-72
2022/08/17 13:16:24;;;;;;;52.20;39.95;;;24.00;99.90;;;;;;5039551;28;20487;-73
2022/08/17 13:19:13;;;;;;;55.65;39.40;;;24.00;99.90;;;;;;5066695;28;20036;-73
2022/08/17 13:21:46;;;;;;;52.53;38.85;;;24.00;99.90;;;;;;5072331;28;20044;-72
2022/08/17 13:24:17;;;;;;;54.33;38.83;;;24.00;99.90;;;;;;5057275;28;20486;-73
2022/08/17 13:26:47;;;;;;;48.17;36.45;;;24.00;99.90;;;;;;5087002;28;20133;-73
2022/08/17 13:29:24;;;;;;;52.78;35.50;;;23.90;99.90;;;;;;5053293;28;20097;-72
2022/08/17 13:32:15;;;;;;;45.92;35.05;;;23.90;99.90;;;;;;5072381;28;20520;-72